sensor_id;sensor_type;location;lat;lon;timestamp;pressure;altitude;pressure_sealevel;temperature;humidity
54951;BME280;40854;45.282;4.302;2023-02-17T10:58:16;93473.09;;;18.21;35.42
54951;BME280;40854;45.282;4.302;2023-02-17T11:00:52;93468.50;;;18.38;35.76
54951;BME280;40854;45.282;4.302;2023-02-17T11:03:25;93473.69;;;18.55;35.51
54951;BME280;40854;45.282;4.302;2023-02-17T11:05:58;93473.06;;;18.74;34.73
54951;BME280;40854;45.282;4.302;2023-02-17T11:08:34;93463.09;;;18.92;35.34
54951;BME280;40854;45.282;4.302;2023-02-17T11:11:19;93455.00;;;19.13;35.35
54951;BME280;40854;45.282;4.302;2023-02-17T11:16:32;93449.31;;;19.47;34.95
54951;BME280;40854;45.282;4.302;2023-02-17T11:19:00;93441.97;;;19.59;34.44
54951;BME280;40854;45.282;4.302;2023-02-17T11:21:28;93439.34;;;19.69;34.26
54951;BME280;40854;45.282;4.302;2023-02-17T11:24:04;93444.69;;;19.80;33.58
54951;BME280;40854;45.282;4.302;2023-02-17T11:26:34;93442.88;;;19.90;34.02
54951;BME280;40854;45.282;4.302;2023-02-17T11:29:13;93442.34;;;19.98;33.35
54951;BME280;40854;45.282;4.302;2023-02-17T11:31:39;93433.59;;;20.08;33.18
54951;BME280;40854;45.282;4.302;2023-02-17T11:34:13;93431.47;;;20.15;32.83
54951;BME280;40854;45.282;4.302;2023-02-17T11:36:42;93433.09;;;20.21;32.75
54951;BME280;40854;45.282;4.302;2023-02-17T11:39:19;93425.09;;;20.31;32.89
54951;BME280;40854;45.282;4.302;2023-02-17T11:41:44;93419.28;;;20.39;32.75
54951;BME280;40854;45.282;4.302;2023-02-17T11:44:10;93420.88;;;20.46;33.12
54951;BME280;40854;45.282;4.302;2023-02-17T11:46:46;93418.75;;;20.53;32.59
54951;BME280;40854;45.282;4.302;2023-02-17T11:49:28;93411.81;;;20.62;32.23
54951;BME280;40854;45.282;4.302;2023-02-17T11:57:39;93408.31;;;20.82;32.23
54951;BME280;40854;45.282;4.302;2023-02-17T12:10:37;93398.44;;;20.92;32.00
54951;BME280;40854;45.282;4.302;2023-02-17T12:13:14;93391.50;;;20.91;31.81
54951;BME280;40854;45.282;4.302;2023-02-17T12:16:13;93400.00;;;21.03;31.99
54951;BME280;40854;45.282;4.302;2023-02-17T12:21:58;93387.97;;;21.21;31.43
54951;BME280;40854;45.282;4.302;2023-02-17T12:27:52;93379.94;;;21.36;31.08
54951;BME280;40854;45.282;4.302;2023-02-17T12:36:01;93379.31;;;21.60;30.86
54951;BME280;40854;45.282;4.302;2023-02-17T12:38:34;93371.81;;;21.62;31.30
54951;BME280;40854;45.282;4.302;2023-02-17T12:41:20;93378.75;;;21.63;31.46
54951;BME280;40854;45.282;4.302;2023-02-17T12:43:54;93371.31;;;21.60;30.80
54951;BME280;40854;45.282;4.302;2023-02-17T12:46:41;93375.25;;;21.67;30.60
54951;BME280;40854;45.282;4.302;2023-02-17T12:51:43;93372.59;;;21.67;30.92
54951;BME280;40854;45.282;4.302;2023-02-17T12:54:17;93367.25;;;21.67;30.71
54951;BME280;40854;45.282;4.302;2023-02-17T12:59:38;93357.78;;;21.90;30.93
54951;BME280;40854;45.282;4.302;2023-02-17T13:04:43;93361.78;;;21.93;30.44
54951;BME280;40854;45.282;4.302;2023-02-17T13:09:46;93352.94;;;22.02;30.81
54951;BME280;40854;45.282;4.302;2023-02-17T13:22:30;93339.50;;;22.47;29.41
54951;BME280;40854;45.282;4.302;2023-02-17T13:24:55;93347.81;;;22.45;30.38
54951;BME280;40854;45.282;4.302;2023-02-17T13:27:29;93338.16;;;22.49;29.57
54951;BME280;40854;45.282;4.302;2023-02-17T13:32:37;93341.56;;;22.55;29.77
54951;BME280;40854;45.282;4.302;2023-02-17T13:37:51;93344.84;;;22.47;29.64
54951;BME280;40854;45.282;4.302;2023-02-17T13:42:52;93337.06;;;22.50;30.22
54951;BME280;40854;45.282;4.302;2023-02-17T13:45:32;93332.16;;;22.62;30.31
54951;BME280;40854;45.282;4.302;2023-02-17T13:48:32;93336.59;;;22.72;29.64
54951;BME280;40854;45.282;4.302;2023-02-17T13:50:58;93326.06;;;22.86;29.51
54951;BME280;40854;45.282;4.302;2023-02-17T13:53:39;93326.84;;;22.86;29.70
54951;BME280;40854;45.282;4.302;2023-02-17T13:56:09;93325.25;;;22.85;30.04
54951;BME280;40854;45.282;4.302;2023-02-17T13:58:38;93326.84;;;22.86;29.83
54951;BME280;40854;45.282;4.302;2023-02-17T14:01:11;93329.66;;;23.00;29.87
54951;BME280;40854;45.282;4.302;2023-02-17T14:03:53;93332.09;;;22.96;29.14
54951;BME280;40854;45.282;4.302;2023-02-17T14:06:29;93332.22;;;23.10;28.92
54951;BME280;40854;45.282;4.302;2023-02-17T14:08:56;93337.56;;;23.10;29.27
54951;BME280;40854;45.282;4.302;2023-02-17T14:11:27;93330.50;;;23.19;29.19
54951;BME280;40854;45.282;4.302;2023-02-17T14:13:56;93333.56;;;23.31;29.44
54951;BME280;40854;45.282;4.302;2023-02-17T14:19:07;93334.31;;;23.37;28.63
54951;BME280;40854;45.282;4.302;2023-02-17T14:21:35;93332.84;;;23.45;28.70
54951;BME280;40854;45.282;4.302;2023-02-17T14:24:01;93330.28;;;23.40;28.90
54951;BME280;40854;45.282;4.302;2023-02-17T14:26:44;93329.53;;;23.34;29.58
54951;BME280;40854;45.282;4.302;2023-02-17T14:29:12;93338.75;;;23.23;29.26
54951;BME280;40854;45.282;4.302;2023-02-17T14:31:40;93338.03;;;23.17;29.10
54951;BME280;40854;45.282;4.302;2023-02-17T14:34:13;93331.31;;;23.20;29.00
54951;BME280;40854;45.282;4.302;2023-02-17T14:36:48;93332.84;;;23.26;28.91
54951;BME280;40854;45.282;4.302;2023-02-17T14:39:15;93326.69;;;23.25;29.19
54951;BME280;40854;45.282;4.302;2023-02-17T14:41:41;93331.47;;;23.28;29.61
54951;BME280;40854;45.282;4.302;2023-02-17T14:44:07;93329.09;;;23.27;29.37
54951;BME280;40854;45.282;4.302;2023-02-17T14:46:34;93330.63;;;23.33;29.04
54951;BME280;40854;45.282;4.302;2023-02-17T14:49:00;93341.84;;;23.35;29.52
54951;BME280;40854;45.282;4.302;2023-02-17T14:51:32;93338.72;;;23.28;29.44
54951;BME280;40854;45.282;4.302;2023-02-17T14:54:01;93339.84;;;23.22;29.14
54951;BME280;40854;45.282;4.302;2023-02-17T14:56:42;93345.75;;;23.19;29.21
54951;BME280;40854;45.282;4.302;2023-02-17T14:59:09;93343.38;;;23.17;29.71
54951;BME280;40854;45.282;4.302;2023-02-17T15:01:35;93342.34;;;23.13;28.95
54951;BME280;40854;45.282;4.302;2023-02-17T15:04:00;93342.19;;;23.05;29.28
54951;BME280;40854;45.282;4.302;2023-02-17T15:06:42;93343.81;;;23.01;29.27
54951;BME280;40854;45.282;4.302;2023-02-17T15:09:14;93346.56;;;22.95;29.82
54951;BME280;40854;45.282;4.302;2023-02-17T15:11:42;93340.97;;;22.92;29.82
54951;BME280;40854;45.282;4.302;2023-02-17T15:14:16;93345.81;;;22.90;29.40
54951;BME280;40854;45.282;4.302;2023-02-17T15:16:43;93341.31;;;22.85;29.47
54951;BME280;40854;45.282;4.302;2023-02-17T15:19:10;93340.28;;;22.81;29.44
54951;BME280;40854;45.282;4.302;2023-02-17T15:21:38;93343.75;;;22.82;29.88
54951;BME280;40854;45.282;4.302;2023-02-17T15:24:19;93350.69;;;22.83;29.33
54951;BME280;40854;45.282;4.302;2023-02-17T15:26:47;93345.88;;;22.85;29.94
54951;BME280;40854;45.282;4.302;2023-02-17T15:29:20;93343.69;;;22.87;30.08
54951;BME280;40854;45.282;4.302;2023-02-17T15:31:46;93347.78;;;22.79;29.80
54951;BME280;40854;45.282;4.302;2023-02-17T15:34:16;93351.28;;;22.75;29.99
54951;BME280;40854;45.282;4.302;2023-02-17T15:36:42;93341.66;;;22.74;29.30
54951;BME280;40854;45.282;4.302;2023-02-17T15:39:10;93344.91;;;22.71;29.90
54951;BME280;40854;45.282;4.302;2023-02-17T15:41:37;93350.00;;;22.67;29.48
54951;BME280;40854;45.282;4.302;2023-02-17T15:44:07;93350.25;;;22.71;30.13
54951;BME280;40854;45.282;4.302;2023-02-17T15:46:36;93355.31;;;22.72;29.79
54951;BME280;40854;45.282;4.302;2023-02-17T15:49:03;93359.91;;;22.66;29.56
54951;BME280;40854;45.282;4.302;2023-02-17T15:51:30;93367.75;;;22.58;30.38
54951;BME280;40854;45.282;4.302;2023-02-17T15:53:55;93365.16;;;22.48;29.90
54951;BME280;40854;45.282;4.302;2023-02-17T15:56:24;93367.63;;;22.39;30.01
54951;BME280;40854;45.282;4.302;2023-02-17T15:58:52;93367.66;;;22.34;30.08
54951;BME280;40854;45.282;4.302;2023-02-17T16:01:32;93366.91;;;22.28;30.17
54951;BME280;40854;45.282;4.302;2023-02-17T16:03:58;93366.44;;;22.21;30.78
54951;BME280;40854;45.282;4.302;2023-02-17T16:06:25;93368.06;;;22.17;30.33
54951;BME280;40854;45.282;4.302;2023-02-17T16:08:52;93376.09;;;22.12;30.36
54951;BME280;40854;45.282;4.302;2023-02-17T16:11:18;93372.66;;;22.07;30.81
54951;BME280;40854;45.282;4.302;2023-02-17T16:13:46;93382.03;;;22.04;30.48
54951;BME280;40854;45.282;4.302;2023-02-17T16:16:18;93382.03;;;21.99;30.58
54951;BME280;40854;45.282;4.302;2023-02-17T16:18:46;93375.91;;;21.98;30.72
54951;BME280;40854;45.282;4.302;2023-02-17T16:21:12;93383.66;;;21.95;30.92
54951;BME280;40854;45.282;4.302;2023-02-17T16:23:39;93385.00;;;21.92;31.34
54951;BME280;40854;45.282;4.302;2023-02-17T16:26:23;93391.19;;;21.88;31.17
54951;BME280;40854;45.282;4.302;2023-02-17T16:28:50;93384.25;;;21.87;30.56
54951;BME280;40854;45.282;4.302;2023-02-17T16:31:15;93389.34;;;21.83;30.62
54951;BME280;40854;45.282;4.302;2023-02-17T16:33:41;93388.81;;;21.81;30.86
54951;BME280;40854;45.282;4.302;2023-02-17T16:36:14;93392.81;;;21.79;31.00
54951;BME280;40854;45.282;4.302;2023-02-17T16:38:41;93392.06;;;21.73;31.25
54951;BME280;40854;45.282;4.302;2023-02-17T16:41:18;93393.94;;;21.73;31.34
54951;BME280;40854;45.282;4.302;2023-02-17T16:43:44;93396.34;;;21.69;31.03
54951;BME280;40854;45.282;4.302;2023-02-17T16:46:28;93396.38;;;21.64;31.00
54951;BME280;40854;45.282;4.302;2023-02-17T16:48:59;93398.50;;;21.62;31.32
54951;BME280;40854;45.282;4.302;2023-02-17T16:51:25;93394.00;;;21.57;31.74
54951;BME280;40854;45.282;4.302;2023-02-17T16:53:51;93391.06;;;21.54;31.92
54951;BME280;40854;45.282;4.302;2023-02-17T16:56:23;93407.09;;;21.49;31.94
54951;BME280;40854;45.282;4.302;2023-02-17T16:58:50;93401.53;;;21.45;31.88
54951;BME280;40854;45.282;4.302;2023-02-17T17:01:16;93407.94;;;21.44;31.65
54951;BME280;40854;45.282;4.302;2023-02-17T17:03:42;93412.75;;;21.42;31.59
54951;BME280;40854;45.282;4.302;2023-02-17T17:06:22;93407.16;;;21.38;31.93
54951;BME280;40854;45.282;4.302;2023-02-17T17:08:49;93410.63;;;21.39;32.47
54951;BME280;40854;45.282;4.302;2023-02-17T17:11:18;93419.16;;;21.36;31.50
54951;BME280;40854;45.282;4.302;2023-02-17T17:13:45;93422.09;;;21.34;31.98
54951;BME280;40854;45.282;4.302;2023-02-17T17:16:19;93425.03;;;21.33;32.36
54951;BME280;40854;45.282;4.302;2023-02-17T17:18:46;93428.25;;;21.30;32.16
54951;BME280;40854;45.282;4.302;2023-02-17T17:21:13;93432.00;;;21.29;32.34
54951;BME280;40854;45.282;4.302;2023-02-17T17:23:39;93429.84;;;21.26;32.70
54951;BME280;40854;45.282;4.302;2023-02-17T17:26:26;93438.13;;;21.24;32.19
54951;BME280;40854;45.282;4.302;2023-02-17T17:28:54;93441.31;;;21.21;32.23
54951;BME280;40854;45.282;4.302;2023-02-17T17:31:20;93443.72;;;21.18;32.01
54951;BME280;40854;45.282;4.302;2023-02-17T17:33:47;93444.53;;;21.18;32.27
54951;BME280;40854;45.282;4.302;2023-02-17T17:36:26;93439.44;;;21.17;32.46
54951;BME280;40854;45.282;4.302;2023-02-17T17:38:55;93445.06;;;21.15;32.47
54951;BME280;40854;45.282;4.302;2023-02-17T17:41:23;93449.88;;;21.13;32.60
54951;BME280;40854;45.282;4.302;2023-02-17T17:43:48;93450.13;;;21.12;32.63
54951;BME280;40854;45.282;4.302;2023-02-17T17:46:30;93446.66;;;21.11;33.07
54951;BME280;40854;45.282;4.302;2023-02-17T17:48:58;93444.28;;;21.10;32.49
54951;BME280;40854;45.282;4.302;2023-02-17T17:51:26;93454.94;;;21.10;32.37
54951;BME280;40854;45.282;4.302;2023-02-17T17:53:52;93454.41;;;21.07;32.21
54951;BME280;40854;45.282;4.302;2023-02-17T17:56:22;93452.81;;;21.06;32.48
54951;BME280;40854;45.282;4.302;2023-02-17T17:58:49;93452.28;;;21.04;32.95
54951;BME280;40854;45.282;4.302;2023-02-17T18:01:16;93453.34;;;21.03;32.48
54951;BME280;40854;45.282;4.302;2023-02-17T18:03:43;93455.22;;;21.03;32.82
54951;BME280;40854;45.282;4.302;2023-02-17T18:06:15;93452.00;;;21.01;32.98
54951;BME280;40854;45.282;4.302;2023-02-17T18:08:45;93452.00;;;21.01;32.74
54951;BME280;40854;45.282;4.302;2023-02-17T18:11:15;93445.88;;;21.00;32.71
54951;BME280;40854;45.282;4.302;2023-02-17T18:13:43;93457.63;;;20.99;32.74
54951;BME280;40854;45.282;4.302;2023-02-17T18:16:11;93455.22;;;20.98;32.77
54951;BME280;40854;45.282;4.302;2023-02-17T18:18:37;93455.75;;;20.95;32.40
54951;BME280;40854;45.282;4.302;2023-02-17T18:21:03;93458.16;;;20.96;32.31
54951;BME280;40854;45.282;4.302;2023-02-17T18:23:28;93452.81;;;20.96;32.66
54951;BME280;40854;45.282;4.302;2023-02-17T18:25:54;93452.56;;;20.98;32.43
